KRCA/RCA METAR and TAF weather

Enter ICAO airport designator
Station Type Date Time Source
KRCA METAR 2022/11/27 08:55 UTC NOAA

KRCA 270855Z AUTO 25003KT 10SM CLR M07/M10 A2994 RMK AO2 SLP171 T10701104 57006 $


Station Type Date Time Source
KRCA Decoded METAR 2022/11/27 08:55 UTC NOAA

Ellsworth Air Force Base, SD, United States (KRCA) 44-09N 103-06W
Nov 27, 2022 - 03:55 AM EST / 2022.11.27 0855 UTC
Wind: from the WSW (250 degrees) at 3 MPH (3 KT):0
Visibility: 10 mile(s):0
Sky conditions: clear
Temperature: 19.4 F (-7.0 C)
Dew Point: 13.3 F (-10.4 C)
Relative Humidity: 76%
Pressure (altimeter): 29.94 in. Hg (1013 hPa)
Pressure tendency: 0.02 inches (0.6 hPa) lower than three hours ago
ob: KRCA 270855Z AUTO 25003KT 10SM CLR M07/M10 A2994 RMK AO2 SLP171 T10701104 57006
cycle: 9

Station Type Date Time Source
KRCA TAF 2022/11/23 21:52 UTC NOAA

TAF
AMD KRCA 232130Z 2321/2501 31020G30KT 9999 FEW150 QNH2970INS
TEMPO 2319/2405 32030G40KT
BECMG 2412/2413 32015G25KT 9999 SCT030 BKN100 QNH3010INS TX12/2322Z TNM02/2412Z LAST NO
AMDS AFT 2321 NEXT 2811

Example: see airport list